Aérodrome :
LOGIN :

S'inscrire | Disclaimer

   EN    FR    IT 

 










Légende :    VFR   VFR Marginal   IFR   IFR Intensif   IFR Très Intensif
Visi : 
Plafond : 
>= 8 km
>= 3000ft
5 à 8 km
1000 à 3000 ft
1500m à 5 km
500 à 1000 ft
800 à 1500m
200 à 500 ft
< 800m
< 200 ft
Symboles :   Orages  Brouillard  Fortes neiges  Fortes précipitations  Vent > 20 kt
SIGMETs :   Divers  Orages  Givrage  Turbulence  Onde Orograph.  Cendres Volcan.






- Altitude de l'aérodrome : 364 ft
- Code IATA : FRA


EDDF - Frankfurt Int.

DERNIER METAR :
  • 031820Z 27005KT 250V310 9999 -SHRA FEW048 SCT070TCU 22/09 Q1001 NOSIG

METARs EXPIRÉS :
  • 031750Z 22007KT 9999 -SHRA FEW048 SCT060CB 22/09 Q1001 NOSIG
  • 031720Z 22009KT 9999 VCSH FEW050CB 23/08 Q1001 NOSIG
  • 031650Z 23010KT 9999 FEW050CB 24/08 Q1001 NOSIG
  • 031620Z VRB05KT 9999 FEW050CB 25/07 Q1001 NOSIG
  • 031550Z 33008KT 300V360 9999 FEW050CB 26/06 Q1001 NOSIG
  • 031520Z 33011KT 9999 FEW050CB 24/08 Q1001 NOSIG

TAF TAF EDDF
Valide du 03 à 18h jusqu'au 05 à 00h UTC


031700Z 0318/0424 34007KT 9999 FEW045
BECMG 0318/0321 VRB03KT
PROB30
TEMPO 0318/0321 27015G30KT TSRA BKN050CB
PROB40
TEMPO 0403/0409 RA SCT010 BKN020
PROB30
TEMPO 0403/0409 4000 TSRA SCT008 BKN014CB
BECMG 0407/0410 20007KT
TEMPO 0409/0412 SCT008 BKN014
BECMG 0411/0414 27010KT
PROB30
TEMPO 0412/0418 27015G25KT 4000 TSRA BKN014 BKN020CB
PROB40
TEMPO 0418/0424 4000 SHRA BKN014CB



MET'MAP, la Météo Aéronautique d'un coup d'oeil ! - Copyright ORBIFLY Décembre 2007 - Disclaimer

ORBIFLY MET'MAP TEAM :

Programmation & Développement : Alexandra Zaïnal
Sur une idée originale de : Baudouin d'Aumeries
Assistance à la programmation : Marc-Olivier Méhu
Soutien technique & logistique : Manuel Goepfert

Contact : metmap@orbifly.com




SOURCES & CREDITS :

   NOAA